Time;durP1;ratioP1;P1;durP2;ratioP2;P2;SDS_P1;SDS_P2;PMS_P1;PMS_P2;Temp;Humidity;BMP_temperature;BMP_pressure;BME280_temperature;BME280_humidity;BME280_pressure;Samples;Min_cycle;Max_cycle;Signal;HPM_P1;HPM_P2
2022/05/11 00:01:55;;;;;;;1.40;0.83;;;16.80;99.90;;;;;;5052761;28;20449;-85
2022/05/11 00:04:23;;;;;;;2.43;1.27;;;16.80;99.90;;;;;;5052547;28;21057;-85
2022/05/11 00:06:50;;;;;;;1.53;1.00;;;16.70;99.90;;;;;;5052991;28;20441;-85
2022/05/11 00:09:18;;;;;;;1.00;1.00;;;16.70;99.90;;;;;;5052459;28;20953;-85
2022/05/11 00:11:47;;;;;;;1.03;0.83;;;16.70;99.90;;;;;;5056799;28;20516;-85
2022/05/11 00:14:16;;;;;;;2.60;0.93;;;16.70;99.90;;;;;;5056276;28;21063;-85
2022/05/11 00:16:43;;;;;;;1.57;1.37;;;16.70;99.90;;;;;;5056207;28;21039;-85
2022/05/11 00:19:10;;;;;;;1.83;1.20;;;16.70;99.90;;;;;;5056497;28;20994;-85
2022/05/11 00:21:46;;;;;;;1.93;1.33;;;16.60;99.90;;;;;;5056870;28;20536;-86
2022/05/11 00:24:16;;;;;;;2.50;1.17;;;16.60;99.90;;;;;;5057120;28;20426;-86
2022/05/11 00:26:45;;;;;;;1.97;1.27;;;16.60;99.90;;;;;;5056703;28;20854;-86
2022/05/11 00:29:33;;;;;;;1.20;0.83;;;16.60;99.90;;;;;;5056675;28;20445;-86
2022/05/11 00:32:00;;;;;;;1.10;0.90;;;16.50;99.90;;;;;;5056291;28;20441;-86
2022/05/11 00:34:34;;;;;;;1.00;0.70;;;16.50;99.90;;;;;;5056311;28;20876;-87
2022/05/11 00:37:02;;;;;;;1.07;1.00;;;16.50;99.90;;;;;;5056191;28;20935;-87
2022/05/11 00:39:34;;;;;;;2.53;1.20;;;16.50;99.90;;;;;;5056452;28;20485;-87
2022/05/11 00:42:17;;;;;;;0.73;0.73;;;16.50;99.90;;;;;;5056188;28;20777;-87
2022/05/11 00:45:04;;;;;;;1.50;1.10;;;16.40;99.90;;;;;;5056111;28;20447;-87
2022/05/11 00:47:45;;;;;;;1.20;0.80;;;16.30;99.90;;;;;;5056164;28;20477;-87
2022/05/11 00:50:18;;;;;;;1.40;1.17;;;16.30;99.90;;;;;;5056149;28;20473;-87
2022/05/11 00:52:53;;;;;;;1.87;1.43;;;16.20;99.90;;;;;;5056175;28;20545;-87
2022/05/11 00:55:25;;;;;;;0.70;0.70;;;16.20;99.90;;;;;;5056339;28;20479;-87
2022/05/11 00:57:56;;;;;;;0.93;0.77;;;16.10;99.90;;;;;;5056191;28;20434;-87
2022/05/11 01:00:24;;;;;;;2.13;1.53;;;16.00;99.90;;;;;;5056157;28;20980;-87
2022/05/11 01:02:56;;;;;;;1.00;1.00;;;15.90;99.90;;;;;;5056280;28;20445;-87
2022/05/11 01:05:23;;;;;;;1.40;0.67;;;15.90;99.90;;;;;;5056415;28;20434;-87
2022/05/11 01:07:54;;;;;;;0.80;0.80;;;15.90;99.90;;;;;;5056046;28;20495;-87
2022/05/11 01:10:22;;;;;;;1.23;0.60;;;15.90;99.90;;;;;;5055780;28;20454;-86
2022/05/11 01:12:54;;;;;;;1.60;1.17;;;15.90;99.90;;;;;;5055721;28;20481;-86
2022/05/11 01:15:25;;;;;;;1.17;0.80;;;15.90;99.90;;;;;;5055655;28;20414;-86
2022/05/11 01:17:53;;;;;;;2.73;1.23;;;15.90;99.90;;;;;;5055938;28;20506;-86
2022/05/11 01:20:23;;;;;;;0.73;0.73;;;15.90;99.90;;;;;;5055633;28;20523;-86
2022/05/11 01:23:00;;;;;;;1.57;1.07;;;15.80;99.90;;;;;;5055913;28;20438;-86
2022/05/11 01:25:29;;;;;;;1.33;0.80;;;15.80;99.90;;;;;;5055982;28;20483;-87
2022/05/11 01:28:02;;;;;;;2.10;0.80;;;15.80;99.90;;;;;;5056040;28;20445;-86
2022/05/11 01:30:29;;;;;;;1.90;1.13;;;15.70;99.90;;;;;;5055409;28;20461;-86
2022/05/11 01:32:57;;;;;;;0.53;0.53;;;15.70;99.90;;;;;;5055360;28;20493;-86
2022/05/11 01:35:34;;;;;;;1.30;1.00;;;15.70;99.90;;;;;;5055664;28;20444;-85
2022/05/11 01:38:13;;;;;;;1.13;1.03;;;15.70;99.90;;;;;;5055294;28;20420;-87
2022/05/11 01:40:41;;;;;;;1.27;1.00;;;15.60;99.90;;;;;;5055245;28;20469;-87
2022/05/11 01:43:08;;;;;;;1.93;1.07;;;15.60;99.90;;;;;;5055659;28;20790;-87
2022/05/11 01:45:35;;;;;;;2.33;1.13;;;15.70;99.90;;;;;;5055522;28;20796;-86
2022/05/11 01:48:02;;;;;;;0.70;0.60;;;15.70;99.90;;;;;;5055354;28;20436;-86
2022/05/11 01:50:28;;;;;;;1.90;1.27;;;15.70;99.90;;;;;;5054941;28;20477;-86
2022/05/11 01:52:55;;;;;;;1.30;1.00;;;15.70;99.90;;;;;;5054860;28;20477;-86
2022/05/11 01:55:24;;;;;;;1.27;0.90;;;15.70;99.90;;;;;;5055067;28;20446;-86
2022/05/11 01:57:52;;;;;;;1.90;1.17;;;15.80;99.90;;;;;;5054972;28;20819;-86
2022/05/11 02:00:19;;;;;;;1.03;0.90;;;15.80;99.90;;;;;;5054914;28;20469;-86
2022/05/11 02:02:49;;;;;;;4.43;0.80;;;15.70;99.90;;;;;;5054584;28;20465;-86
2022/05/11 02:08:04;;;;;;;1.07;0.90;;;15.70;99.90;;;;;;5054766;28;20405;-86
2022/05/11 02:10:32;;;;;;;1.50;1.37;;;15.70;99.90;;;;;;5055089;28;20485;-86
2022/05/11 02:13:00;;;;;;;2.20;1.07;;;15.70;99.90;;;;;;5054655;28;20456;-86
2022/05/11 02:15:28;;;;;;;2.10;1.43;;;15.70;99.90;;;;;;5054263;28;20944;-86
2022/05/11 02:17:55;;;;;;;1.03;0.90;;;15.70;99.90;;;;;;5054825;28;20496;-86
2022/05/11 02:20:23;;;;;;;0.80;0.80;;;15.60;99.90;;;;;;5055320;28;20474;-86
2022/05/11 02:22:52;;;;;;;2.53;1.00;;;15.60;99.90;;;;;;5054713;28;20469;-86
2022/05/11 02:25:19;;;;;;;2.20;1.33;;;15.60;99.90;;;;;;5054116;28;20920;-86
2022/05/11 02:27:48;;;;;;;2.20;0.97;;;15.60;99.90;;;;;;5054197;28;20461;-86
2022/05/11 02:30:19;;;;;;;1.23;0.87;;;15.50;99.90;;;;;;5054142;28;20985;-86
2022/05/11 02:32:46;;;;;;;3.33;1.17;;;15.50;99.90;;;;;;5053664;28;20902;-87
2022/05/11 02:35:13;;;;;;;0.70;0.60;;;15.50;99.90;;;;;;5054546;28;20418;-87
2022/05/11 02:37:40;;;;;;;2.63;1.03;;;15.50;99.90;;;;;;5054236;28;20445;-87
2022/05/11 02:40:08;;;;;;;1.57;1.00;;;15.50;99.90;;;;;;5054195;28;20470;-87
2022/05/11 02:42:35;;;;;;;1.27;0.70;;;15.40;99.90;;;;;;5062005;28;20430;-86
2022/05/11 02:45:02;;;;;;;0.70;0.70;;;15.40;99.90;;;;;;5055481;28;20985;-86
2022/05/11 02:47:30;;;;;;;0.73;0.73;;;15.40;99.90;;;;;;5054124;28;20448;-85
2022/05/11 02:49:57;;;;;;;4.50;1.00;;;15.40;99.90;;;;;;5054504;28;20858;-85
2022/05/11 02:52:24;;;;;;;1.83;0.83;;;15.50;99.90;;;;;;5053725;28;20457;-85
2022/05/11 02:54:53;;;;;;;1.03;1.00;;;15.40;99.90;;;;;;5053356;28;21027;-85
2022/05/11 02:57:20;;;;;;;0.93;0.83;;;15.40;99.90;;;;;;5053444;28;20458;-85
2022/05/11 02:59:49;;;;;;;1.40;1.23;;;15.40;99.90;;;;;;5053396;28;20470;-85
2022/05/11 03:02:17;;;;;;;1.20;1.10;;;15.40;99.90;;;;;;5053592;28;20515;-85
2022/05/11 03:04:46;;;;;;;0.93;0.93;;;15.40;99.90;;;;;;5053750;28;20438;-85
2022/05/11 03:07:12;;;;;;;1.07;0.80;;;15.40;99.90;;;;;;5053569;28;20458;-85
2022/05/11 03:09:39;;;;;;;2.00;1.07;;;15.40;99.90;;;;;;5053304;28;20465;-85
2022/05/11 03:12:11;;;;;;;1.00;0.83;;;15.40;99.90;;;;;;5054485;28;20450;-85
2022/05/11 03:14:38;;;;;;;1.47;1.37;;;15.30;99.90;;;;;;5053890;28;20872;-86
2022/05/11 03:17:09;;;;;;;0.60;0.60;;;15.40;99.90;;;;;;5053816;28;20449;-86
2022/05/11 03:19:38;;;;;;;2.63;0.80;;;15.40;99.90;;;;;;5053958;28;20466;-86
2022/05/11 03:22:06;;;;;;;1.40;0.83;;;15.30;99.90;;;;;;5053567;28;20885;-85
2022/05/11 03:24:33;;;;;;;5.80;0.70;;;15.30;99.90;;;;;;5053468;28;20448;-85
2022/05/11 03:27:00;;;;;;;2.50;1.27;;;15.30;99.90;;;;;;5053262;28;20818;-84
2022/05/11 03:29:30;;;;;;;1.17;0.60;;;15.30;99.90;;;;;;5053254;28;20470;-85
2022/05/11 03:34:42;;;;;;;1.00;0.70;;;15.20;99.90;;;;;;5053088;28;20527;-84
2022/05/11 03:37:22;;;;;;;1.13;1.10;;;15.20;99.90;;;;;;5053048;28;20457;-84
2022/05/11 03:39:49;;;;;;;4.60;1.07;;;15.10;99.90;;;;;;5053041;28;20457;-85
2022/05/11 03:42:18;;;;;;;0.80;0.60;;;15.10;99.90;;;;;;5053115;28;20453;-84
2022/05/11 03:44:45;;;;;;;0.70;0.70;;;15.10;99.90;;;;;;5053543;28;20941;-83
2022/05/11 03:47:12;;;;;;;1.13;0.83;;;15.00;99.90;;;;;;5057304;28;20449;-85
2022/05/11 03:49:38;;;;;;;1.00;1.00;;;15.00;99.90;;;;;;5057231;28;20478;-85
2022/05/11 03:52:06;;;;;;;1.90;1.00;;;15.00;99.90;;;;;;5056997;28;20434;-84
2022/05/11 03:54:35;;;;;;;1.03;0.73;;;15.00;99.90;;;;;;5056966;28;20481;-84
2022/05/11 03:57:01;;;;;;;1.83;1.10;;;14.90;99.90;;;;;;5056575;28;20933;-84
2022/05/11 03:59:49;;;;;;;1.37;0.83;;;14.90;99.90;;;;;;5056539;28;20466;-84
2022/05/11 04:02:16;;;;;;;1.13;0.60;;;14.90;99.90;;;;;;5047960;28;20449;-84
2022/05/11 04:04:43;;;;;;;0.90;0.57;;;15.00;99.90;;;;;;5056891;28;20975;-84
2022/05/11 04:07:10;;;;;;;1.03;0.93;;;15.00;99.90;;;;;;5057010;28;20444;-85
2022/05/11 04:09:43;;;;;;;1.23;0.70;;;14.90;99.90;;;;;;5056751;28;20454;-86
2022/05/11 04:12:10;;;;;;;1.77;0.90;;;14.90;99.90;;;;;;5056787;28;20430;-84
2022/05/11 04:14:37;;;;;;;0.60;0.50;;;14.90;99.90;;;;;;5056551;28;20488;-84
2022/05/11 04:17:04;;;;;;;1.30;1.00;;;14.90;99.90;;;;;;5056823;28;20449;-84
2022/05/11 04:19:31;;;;;;;1.20;0.80;;;14.90;99.90;;;;;;5056459;28;20523;-84
2022/05/11 04:21:58;;;;;;;0.60;0.60;;;14.90;99.90;;;;;;5056287;28;20449;-84
2022/05/11 04:24:25;;;;;;;1.23;0.70;;;14.90;99.90;;;;;;5056469;28;20450;-84
2022/05/11 04:26:54;;;;;;;1.00;0.67;;;14.90;99.90;;;;;;5056486;28;20454;-84
2022/05/11 04:29:25;;;;;;;0.60;0.60;;;14.90;99.90;;;;;;5056298;28;20901;-84
2022/05/11 04:32:16;;;;;;;1.40;1.03;;;15.00;99.90;;;;;;5056321;28;20461;-85
2022/05/11 04:38:06;;;;;;;1.80;1.00;;;15.00;99.90;;;;;;4953457;28;20434;-85
2022/05/11 04:43:49;;;;;;;1.83;0.87;;;15.00;99.90;;;;;;4990381;28;20838;-85
2022/05/11 04:46:16;;;;;;;2.90;0.87;;;15.00;99.90;;;;;;4994750;28;20518;-84
2022/05/11 04:52:25;;;;;;;1.20;1.10;;;15.10;99.90;;;;;;5011440;28;20442;-83
2022/05/11 04:55:26;;;;;;;0.90;0.80;;;15.10;99.90;;;;;;5055646;28;21091;-84
2022/05/11 04:57:55;;;;;;;0.50;0.50;;;15.10;99.90;;;;;;5055376;28;20488;-84
2022/05/11 05:00:38;;;;;;;1.63;1.10;;;15.10;99.90;;;;;;5055383;28;20446;-84
2022/05/11 05:03:13;;;;;;;1.37;0.60;;;15.10;99.90;;;;;;5055390;28;20474;-84
2022/05/11 05:09:26;;;;;;;3.10;1.63;;;15.20;99.90;;;;;;5054706;28;20884;-84
2022/05/11 05:12:14;;;;;;;2.63;1.30;;;15.20;99.90;;;;;;4994053;28;20460;-85
2022/05/11 05:14:57;;;;;;;2.77;0.60;;;15.20;99.90;;;;;;4994820;28;20544;-85
2022/05/11 05:17:50;;;;;;;0.90;0.90;;;15.30;99.90;;;;;;5055997;28;20792;-85
2022/05/11 05:23:30;;;;;;;2.30;1.00;;;15.40;99.90;;;;;;5048109;28;20430;-85
2022/05/11 05:32:54;;;;;;;1.53;0.93;;;15.60;99.90;;;;;;5055595;28;20405;-85
2022/05/11 05:36:02;;;;;;;3.03;1.27;;;15.70;99.90;;;;;;5054883;28;20569;-85
2022/05/11 05:38:38;;;;;;;;;;;;;;;;;;;;;
2022/05/11 05:44:39;;;;;;;1.00;0.63;;;15.80;99.90;;;;;;5016330;28;20426;-85
2022/05/11 05:47:08;;;;;;;0.50;0.50;;;15.90;99.90;;;;;;5054730;28;20468;-84
2022/05/11 05:49:36;;;;;;;1.80;1.30;;;16.00;99.90;;;;;;5054401;28;20523;-84
2022/05/11 05:52:04;;;;;;;0.87;0.50;;;16.10;99.90;;;;;;5055018;28;20836;-86
2022/05/11 05:54:31;;;;;;;1.13;0.80;;;16.20;99.90;;;;;;5055583;28;20809;-85
2022/05/11 05:56:58;;;;;;;2.20;0.90;;;16.40;99.90;;;;;;5055155;28;20462;-87
2022/05/11 05:59:29;;;;;;;0.97;0.80;;;16.60;99.90;;;;;;5054672;28;20996;-86
2022/05/11 06:02:01;;;;;;;3.43;0.73;;;16.80;99.90;;;;;;5055033;28;20780;-86
2022/05/11 06:04:33;;;;;;;0.73;0.73;;;17.00;99.90;;;;;;5054782;28;20502;-87
2022/05/11 06:07:18;;;;;;;2.47;1.70;;;17.20;99.90;;;;;;5054629;28;20532;-86
2022/05/11 06:09:46;;;;;;;1.20;1.00;;;17.50;99.90;;;;;;5054461;28;20472;-87
2022/05/11 06:12:28;;;;;;;1.37;0.90;;;17.70;99.90;;;;;;5054917;28;20851;-86
2022/05/11 06:14:54;;;;;;;1.30;1.10;;;18.00;99.90;;;;;;5055287;28;20470;-86
2022/05/11 06:17:23;;;;;;;1.90;1.00;;;18.20;99.90;;;;;;5054436;28;20441;-85
2022/05/11 06:19:50;;;;;;;1.17;0.90;;;18.40;99.90;;;;;;5054501;28;20505;-85
2022/05/11 06:22:46;;;;;;;1.30;1.20;;;18.70;99.90;;;;;;5054402;28;20434;-86
2022/05/11 06:25:45;;;;;;;1.70;1.60;;;19.10;99.90;;;;;;5054489;28;20434;-86
2022/05/11 06:28:44;;;;;;;1.23;0.70;;;19.50;99.90;;;;;;5054209;28;20433;-85
2022/05/11 06:32:09;;;;;;;1.80;1.03;;;19.80;99.90;;;;;;5053947;28;20468;-86
2022/05/11 06:38:32;;;;;;;1.47;1.20;;;20.60;99.90;;;;;;4934766;29;20522;-86
2022/05/11 06:44:38;;;;;;;1.47;0.80;;;20.80;99.90;;;;;;4935166;29;20453;-86
2022/05/11 06:47:24;;;;;;;2.63;1.50;;;21.10;99.90;;;;;;4934740;29;20541;-87
2022/05/11 07:03:06;;;;;;;0.98;0.70;;;22.20;99.90;;;;;;5050445;28;20199;-87
2022/05/11 07:06:53;;;;;;;;;;;;;;;;;;;;;
2022/05/11 07:09:29;;;;;;;1.17;1.05;;;22.80;99.90;;;;;;5063558;28;20201;-88
2022/05/11 07:18:34;;;;;;;1.33;0.75;;;23.90;99.90;;;;;;5114049;28;20699;-87
2022/05/11 07:21:42;;;;;;;1.13;1.08;;;24.20;99.90;;;;;;5079082;28;20248;-88
2022/05/11 07:24:09;;;;;;;0.88;0.88;;;24.30;99.90;;;;;;5114579;28;20208;-88
2022/05/11 07:26:47;;;;;;;2.03;1.30;;;24.80;99.90;;;;;;5115126;28;20225;-86
2022/05/11 07:35:42;;;;;;;1.33;1.08;;;25.50;97.10;;;;;;5104270;28;20220;-87
2022/05/11 07:38:27;;;;;;;0.93;0.85;;;25.70;96.60;;;;;;5114508;28;20198;-88
2022/05/11 07:41:20;;;;;;;1.30;1.20;;;26.10;94.80;;;;;;5114478;28;20246;-87
2022/05/11 07:47:07;;;;;;;1.13;1.13;;;26.20;93.10;;;;;;5100450;28;20210;-89
2022/05/11 07:49:43;;;;;;;3.25;1.42;;;26.80;90.80;;;;;;5116465;28;20291;-89
2022/05/11 07:52:19;;;;;;;1.60;1.50;;;26.60;91.50;;;;;;5118875;28;20191;-89
2022/05/11 07:54:46;;;;;;;1.33;1.23;;;27.20;90.80;;;;;;5117516;28;20229;-89
2022/05/11 08:00:00;;;;;;;1.38;1.27;;;28.80;82.80;;;;;;5115741;28;20243;-91
2022/05/11 08:02:30;;;;;;;1.30;1.13;;;29.70;80.80;;;;;;5117244;28;20624;-89
2022/05/11 08:04:59;;;;;;;1.30;1.20;;;30.50;73.70;;;;;;5122685;28;20281;-90
2022/05/11 08:07:36;;;;;;;1.20;1.10;;;31.50;68.30;;;;;;5115375;28;20187;-88
2022/05/11 08:10:03;;;;;;;1.35;1.10;;;31.90;68.10;;;;;;5115910;28;20263;-90
2022/05/11 08:12:30;;;;;;;0.90;0.90;;;33.20;65.50;;;;;;5116215;28;20207;-89
2022/05/11 08:14:57;;;;;;;1.45;1.35;;;32.60;60.60;;;;;;5114999;28;20224;-88
2022/05/11 08:17:38;;;;;;;0.90;0.90;;;32.70;61.50;;;;;;5115253;28;20226;-88
2022/05/11 08:20:11;;;;;;;1.50;1.40;;;31.90;60.20;;;;;;5116653;28;20250;-89
2022/05/11 08:22:38;;;;;;;1.60;1.50;;;31.10;63.10;;;;;;5115412;28;20743;-86
2022/05/11 08:25:06;;;;;;;1.25;1.20;;;30.70;63.70;;;;;;5117689;28;20199;-91
2022/05/11 08:27:33;;;;;;;1.98;1.10;;;29.90;65.30;;;;;;5115984;28;20236;-89
2022/05/11 08:35:31;;;;;;;1.15;1.05;;;28.60;67.10;;;;;;5120231;28;20233;-90
2022/05/11 08:37:57;;;;;;;1.40;1.30;;;28.50;68.20;;;;;;5121912;28;20194;-91
2022/05/11 08:40:33;;;;;;;0.98;0.98;;;28.70;67.70;;;;;;5121012;28;20228;-90
2022/05/11 08:43:02;;;;;;;1.17;1.17;;;28.70;67.10;;;;;;5120866;28;20181;-89
2022/05/11 08:45:37;;;;;;;2.10;1.38;;;28.90;68.50;;;;;;5120635;28;20285;-90
2022/05/11 08:48:21;;;;;;;1.58;1.48;;;28.60;68.10;;;;;;5120738;28;20212;-90
2022/05/11 08:50:48;;;;;;;1.08;0.90;;;28.40;69.40;;;;;;5121394;28;20256;-89
2022/05/11 08:53:31;;;;;;;1.30;1.13;;;28.00;70.90;;;;;;5120191;28;20214;-89
2022/05/11 08:56:02;;;;;;;2.03;1.73;;;27.70;70.30;;;;;;5119333;28;20210;-91
2022/05/11 08:58:34;;;;;;;1.45;1.23;;;27.50;72.50;;;;;;5120433;28;20206;-90
2022/05/11 09:01:02;;;;;;;2.17;1.08;;;27.30;72.50;;;;;;5119357;28;20636;-90
2022/05/11 09:03:34;;;;;;;1.38;1.27;;;27.30;72.40;;;;;;5119996;28;20203;-90
2022/05/11 09:06:02;;;;;;;1.13;1.02;;;27.40;73.80;;;;;;5122088;28;20177;-90
2022/05/11 09:08:33;;;;;;;2.00;1.77;;;27.40;73.90;;;;;;5121378;28;20193;-91
2022/05/11 09:11:00;;;;;;;1.20;1.05;;;27.40;73.80;;;;;;5120912;28;20340;-91
2022/05/11 09:13:28;;;;;;;1.42;1.27;;;27.60;73.80;;;;;;5120438;28;20332;-91
2022/05/11 09:16:00;;;;;;;1.60;1.50;;;27.70;73.30;;;;;;5120144;28;20714;-90
2022/05/11 09:18:39;;;;;;;1.40;1.00;;;27.70;73.70;;;;;;5121603;28;20244;-89
2022/05/11 09:21:21;;;;;;;1.10;1.10;;;27.70;72.30;;;;;;5119530;28;20229;-90
2022/05/11 09:24:00;;;;;;;2.10;1.50;;;27.50;72.50;;;;;;5120181;28;20192;-89
2022/05/11 09:26:32;;;;;;;1.40;1.30;;;27.30;71.30;;;;;;5121081;28;20254;-88
2022/05/11 09:29:15;;;;;;;1.80;1.50;;;27.30;72.20;;;;;;5119541;28;20189;-89
2022/05/11 09:31:50;;;;;;;1.13;1.02;;;27.40;73.70;;;;;;5120203;28;20652;-89
2022/05/11 09:34:27;;;;;;;1.60;1.33;;;27.50;74.10;;;;;;5119075;28;20273;-89
2022/05/11 09:37:01;;;;;;;1.67;1.58;;;27.50;73.10;;;;;;5119266;28;20299;-87
2022/05/11 09:39:29;;;;;;;1.10;1.00;;;27.40;70.30;;;;;;5117606;28;20227;-87
2022/05/11 09:42:12;;;;;;;1.75;1.35;;;27.20;70.40;;;;;;5118578;28;20237;-88
2022/05/11 09:44:48;;;;;;;2.00;1.58;;;27.30;74.80;;;;;;5118727;28;20185;-88
2022/05/11 09:47:31;;;;;;;2.03;1.63;;;27.10;72.60;;;;;;5119894;28;20207;-89
2022/05/11 09:50:34;;;;;;;3.15;1.52;;;27.20;73.90;;;;;;5118762;28;20580;-88
2022/05/11 09:53:22;;;;;;;1.30;1.20;;;27.40;74.20;;;;;;5118740;28;20200;-88
2022/05/11 09:55:50;;;;;;;2.15;1.40;;;27.40;71.90;;;;;;5118350;28;20308;-89
2022/05/11 09:58:29;;;;;;;1.50;1.40;;;27.40;72.10;;;;;;5118041;28;20208;-87
2022/05/11 10:01:11;;;;;;;1.20;1.10;;;27.20;69.40;;;;;;5117215;28;20265;-88
2022/05/11 10:03:43;;;;;;;1.40;1.30;;;27.40;70.40;;;;;;5120229;28;20224;-89
2022/05/11 10:06:13;;;;;;;1.73;1.60;;;27.50;70.30;;;;;;5120570;28;20193;-88
2022/05/11 10:08:48;;;;;;;1.30;1.20;;;27.60;68.80;;;;;;5121083;28;20262;-88
2022/05/11 10:11:23;;;;;;;1.83;1.58;;;27.80;68.90;;;;;;5119251;28;20767;-88
2022/05/11 10:13:59;;;;;;;1.40;1.10;;;28.00;69.60;;;;;;5118835;28;20181;-88
2022/05/11 10:22:19;;;;;;;1.40;1.10;;;27.30;66.50;;;;;;5120930;28;20183;-89
2022/05/11 10:25:10;;;;;;;1.45;1.10;;;27.40;69.00;;;;;;5121316;28;20205;-90
2022/05/11 10:27:44;;;;;;;1.10;1.00;;;27.70;67.70;;;;;;5120104;28;20181;-88
2022/05/11 10:30:20;;;;;;;1.38;1.27;;;27.90;66.90;;;;;;5120789;28;20315;-88
2022/05/11 10:33:26;;;;;;;1.50;1.40;;;28.10;66.30;;;;;;5119584;28;20202;-88
2022/05/11 10:39:21;;;;;;;1.50;1.13;;;28.30;66.60;;;;;;5111888;28;20292;-87
2022/05/11 10:41:59;;;;;;;2.08;1.00;;;28.30;64.00;;;;;;5118488;28;20274;-87
2022/05/11 10:44:44;;;;;;;1.33;1.10;;;28.30;64.20;;;;;;5118576;28;20720;-89
2022/05/11 10:47:43;;;;;;;0.63;0.63;;;28.30;62.00;;;;;;5127249;28;20202;-88
2022/05/11 10:50:26;;;;;;;3.00;1.10;;;28.40;63.70;;;;;;5119542;28;20772;-88
2022/05/11 10:53:20;;;;;;;1.30;1.15;;;28.50;63.50;;;;;;5119497;28;20265;-87
2022/05/11 10:56:25;;;;;;;1.17;1.08;;;28.70;64.30;;;;;;5119209;28;20201;-87
2022/05/11 10:59:44;;;;;;;1.40;1.05;;;28.70;60.20;;;;;;5120460;28;20229;-88
2022/05/11 11:02:38;;;;;;;1.35;1.25;;;28.90;61.20;;;;;;5016505;28;20239;-88
2022/05/11 11:05:10;;;;;;;1.23;1.00;;;28.90;61.50;;;;;;5013612;28;20221;-88
2022/05/11 11:07:44;;;;;;;1.25;1.10;;;28.80;61.80;;;;;;5066450;28;20674;-87
2022/05/11 11:10:23;;;;;;;1.30;0.90;;;28.70;62.10;;;;;;5094732;28;20303;-85
2022/05/11 11:13:16;;;;;;;1.10;1.08;;;28.60;61.40;;;;;;5094275;28;20657;-85
2022/05/11 11:15:45;;;;;;;1.15;1.05;;;28.20;60.80;;;;;;5093677;28;20206;-84
2022/05/11 11:18:15;;;;;;;4.43;1.00;;;28.10;60.20;;;;;;5093842;28;20682;-85
2022/05/11 11:20:46;;;;;;;1.08;0.98;;;27.90;61.90;;;;;;5094315;28;20253;-89
2022/05/11 11:23:30;;;;;;;2.78;1.05;;;27.90;60.80;;;;;;5095357;28;20196;-89
2022/05/11 11:25:59;;;;;;;1.42;1.10;;;28.00;61.40;;;;;;5094948;28;20201;-88
2022/05/11 11:28:28;;;;;;;1.02;0.93;;;27.90;60.80;;;;;;5094654;28;20229;-87
2022/05/11 11:31:16;;;;;;;1.45;1.00;;;27.90;60.80;;;;;;5094117;28;20256;-85
2022/05/11 11:34:16;;;;;;;1.00;1.00;;;27.70;62.10;;;;;;5093830;28;20201;-84
2022/05/11 11:36:43;;;;;;;1.17;1.08;;;27.60;62.00;;;;;;5093698;28;20212;-84
2022/05/11 11:39:14;;;;;;;0.95;0.95;;;27.60;63.10;;;;;;5093385;28;20194;-84
2022/05/11 11:42:04;;;;;;;1.10;1.10;;;27.50;60.80;;;;;;5094689;28;20212;-84
2022/05/11 11:44:39;;;;;;;1.98;1.70;;;27.50;60.90;;;;;;5094894;28;20205;-86
2022/05/11 11:47:35;;;;;;;0.90;0.90;;;27.50;59.80;;;;;;5095764;28;20187;-86
2022/05/11 11:50:03;;;;;;;1.30;1.10;;;27.40;61.50;;;;;;5095344;28;20704;-86
2022/05/11 11:52:35;;;;;;;0.90;0.90;;;27.40;61.20;;;;;;5094771;28;20197;-85
2022/05/11 11:55:08;;;;;;;1.35;1.08;;;27.50;60.30;;;;;;5095032;28;20212;-85
2022/05/11 11:57:35;;;;;;;0.85;0.82;;;27.50;60.10;;;;;;5093488;28;20222;-84
2022/05/11 12:00:06;;;;;;;0.80;0.70;;;27.50;58.80;;;;;;5101114;28;20285;-86
2022/05/11 12:02:39;;;;;;;0.80;0.80;;;27.60;59.10;;;;;;5114817;28;20258;-85
2022/05/11 12:05:11;;;;;;;0.80;0.80;;;27.60;59.50;;;;;;5114737;28;20192;-87
2022/05/11 12:16:18;;;;;;;1.40;1.10;;;27.30;57.40;;;;;;5120039;28;20212;-85
2022/05/11 12:18:46;;;;;;;0.90;0.90;;;27.40;57.70;;;;;;5119868;28;20223;-85
2022/05/11 12:21:36;;;;;;;1.38;1.10;;;27.40;57.30;;;;;;5119823;28;20225;-87
2022/05/11 12:24:37;;;;;;;2.08;1.13;;;27.40;56.50;;;;;;5121115;28;20197;-88
2022/05/11 12:29:57;;;;;;;0.93;0.80;;;27.10;59.20;;;;;;5094738;28;20297;-88
2022/05/11 12:33:14;;;;;;;1.75;1.00;;;27.10;57.60;;;;;;5120296;28;20231;-87
2022/05/11 12:35:59;;;;;;;0.60;0.60;;;27.10;56.70;;;;;;5093886;28;20201;-88
2022/05/11 12:38:32;;;;;;;0.80;0.80;;;27.10;58.10;;;;;;5119048;28;20253;-88
2022/05/11 12:41:08;;;;;;;0.80;0.80;;;27.00;55.10;;;;;;5148289;22;20229;-89
2022/05/11 12:43:36;;;;;;;1.00;0.90;;;27.00;55.70;;;;;;5100072;28;20262;-90
2022/05/11 12:46:06;;;;;;;3.75;0.80;;;26.90;54.50;;;;;;5100876;28;20193;-89
2022/05/11 12:48:34;;;;;;;0.80;0.80;;;26.80;53.80;;;;;;5104830;28;20189;-90
2022/05/11 12:51:06;;;;;;;1.30;0.90;;;26.70;54.10;;;;;;5100979;28;20221;-89
2022/05/11 12:53:36;;;;;;;0.73;0.73;;;26.70;55.80;;;;;;5101002;28;20615;-90
2022/05/11 12:56:16;;;;;;;0.85;0.80;;;26.60;57.40;;;;;;5098346;28;20209;-89
2022/05/11 12:58:46;;;;;;;1.45;1.05;;;26.50;56.20;;;;;;5098663;28;20208;-85
2022/05/11 13:01:21;;;;;;;0.80;0.80;;;26.60;56.40;;;;;;5099077;28;20222;-88
2022/05/11 13:03:54;;;;;;;1.13;0.80;;;26.50;55.30;;;;;;5099860;28;20193;-88
2022/05/11 13:06:37;;;;;;;0.85;0.85;;;26.40;57.00;;;;;;5099689;28;20242;-88
2022/05/11 13:09:15;;;;;;;1.25;0.80;;;26.40;55.40;;;;;;5099571;28;20675;-88
2022/05/11 13:11:43;;;;;;;2.15;0.85;;;26.40;55.50;;;;;;5098492;28;20192;-86
2022/05/11 13:14:25;;;;;;;0.95;0.73;;;26.30;53.90;;;;;;5097982;28;20201;-88
2022/05/11 13:16:54;;;;;;;0.60;0.60;;;26.30;53.30;;;;;;5097764;28;20229;-88
2022/05/11 13:19:25;;;;;;;0.70;0.70;;;26.20;52.70;;;;;;5099085;28;20177;-93
2022/05/11 13:21:56;;;;;;;0.88;0.88;;;26.20;53.90;;;;;;5086058;28;20319;-91
2022/05/11 13:24:42;;;;;;;1.20;0.90;;;26.10;53.40;;;;;;5105681;28;20178;-91
2022/05/11 13:27:33;;;;;;;0.80;0.80;;;26.10;56.20;;;;;;5109841;28;20191;-91
2022/05/11 13:33:35;;;;;;;0.65;0.65;;;26.10;52.00;;;;;;5099120;28;20204;-87
2022/05/11 13:36:21;;;;;;;2.10;1.00;;;26.10;51.50;;;;;;5100289;28;20197;-88
2022/05/11 13:38:59;;;;;;;0.52;0.52;;;26.00;52.90;;;;;;5098282;28;20196;-87
2022/05/11 13:41:29;;;;;;;0.70;0.70;;;26.00;49.90;;;;;;5097359;28;20592;-87
2022/05/11 13:43:58;;;;;;;0.77;0.77;;;26.00;50.60;;;;;;5096687;28;20665;-86
2022/05/11 13:49:38;;;;;;;0.60;0.60;;;26.00;51.70;;;;;;5098455;28;20223;-88
2022/05/11 13:52:09;;;;;;;0.70;0.70;;;25.90;51.80;;;;;;5098904;28;20687;-87
2022/05/11 13:54:50;;;;;;;1.00;0.77;;;25.90;52.60;;;;;;5097604;28;20174;-88
2022/05/11 13:57:30;;;;;;;1.15;0.80;;;26.00;53.20;;;;;;5097163;28;20292;-88
2022/05/11 14:00:12;;;;;;;1.50;0.93;;;25.90;51.60;;;;;;5098362;28;20228;-87
2022/05/11 14:02:39;;;;;;;0.82;0.82;;;25.80;50.60;;;;;;5096090;28;20186;-89
2022/05/11 14:05:06;;;;;;;0.88;0.88;;;25.80;52.00;;;;;;5096476;28;20228;-89
2022/05/11 14:07:33;;;;;;;0.88;0.88;;;25.80;51.70;;;;;;5096255;28;20661;-89
2022/05/11 14:10:01;;;;;;;0.60;0.60;;;25.80;53.10;;;;;;5095429;28;20220;-90
2022/05/11 14:12:28;;;;;;;1.02;0.82;;;25.80;52.80;;;;;;5096090;28;20208;-88
2022/05/11 14:14:55;;;;;;;1.52;0.88;;;25.80;53.00;;;;;;5095342;28;20565;-89
2022/05/11 14:17:26;;;;;;;1.00;0.80;;;25.80;52.20;;;;;;5095555;28;20213;-88
2022/05/11 14:19:56;;;;;;;0.80;0.70;;;25.80;52.70;;;;;;5095250;28;20751;-89
2022/05/11 14:22:22;;;;;;;0.70;0.70;;;25.80;53.20;;;;;;5095736;28;20518;-88
2022/05/11 14:24:49;;;;;;;0.70;0.70;;;25.70;50.90;;;;;;5095175;28;20664;-87
2022/05/11 14:27:18;;;;;;;0.75;0.70;;;25.80;51.80;;;;;;5095523;28;20201;-87
2022/05/11 14:29:47;;;;;;;0.98;0.90;;;25.80;51.30;;;;;;5094245;28;20224;-87
2022/05/11 14:32:25;;;;;;;0.60;0.60;;;25.70;52.80;;;;;;5095755;28;20209;-86
2022/05/11 14:34:51;;;;;;;0.90;0.80;;;25.70;54.80;;;;;;5096074;28;20698;-87
2022/05/11 14:37:22;;;;;;;1.38;0.77;;;25.60;55.60;;;;;;5095495;28;20221;-87
2022/05/11 14:39:49;;;;;;;0.80;0.80;;;25.60;56.00;;;;;;5095547;28;20593;-88
2022/05/11 14:42:18;;;;;;;1.02;0.98;;;25.60;56.30;;;;;;5095348;28;20219;-87
2022/05/11 14:44:45;;;;;;;1.83;1.00;;;25.60;56.00;;;;;;5094988;28;20640;-88
2022/05/11 14:47:13;;;;;;;1.20;0.82;;;25.60;56.50;;;;;;5094947;28;20197;-88
2022/05/11 14:49:41;;;;;;;0.70;0.70;;;25.50;57.40;;;;;;5095214;28;20700;-89
2022/05/11 14:52:09;;;;;;;0.70;0.70;;;25.50;56.00;;;;;;5094960;28;20212;-89
2022/05/11 14:54:39;;;;;;;1.35;0.80;;;25.50;56.90;;;;;;5095150;28;20197;-88
2022/05/11 15:02:37;;;;;;;0.77;0.77;;;25.50;59.00;;;;;;5096144;28;20266;-90
2022/05/11 15:05:05;;;;;;;1.10;1.00;;;25.50;57.70;;;;;;5095297;28;20201;-90
2022/05/11 15:07:33;;;;;;;1.20;1.10;;;25.50;57.40;;;;;;5095731;28;20206;-89
2022/05/11 15:10:00;;;;;;;0.90;0.90;;;25.40;56.50;;;;;;5098726;28;20213;-90
2022/05/11 15:15:13;;;;;;;0.75;0.70;;;25.40;57.60;;;;;;5100425;28;20212;-89
2022/05/11 15:17:40;;;;;;;0.80;0.80;;;25.40;57.50;;;;;;5101948;28;20688;-89